Terminal Aerodrome Forecast
Issued by NWS Melbourne, FL

Home | Current Version | Previous Version | Text Only | Print | Product List | Glossary On
Versions: 1 2 3 4 5 6 7 8 9 10 11 12 13 14 15 16 17 18 19 20
418
FTUS42 KMLB 250535
TAFMCO
TAF
KMCO 250535Z 2506/2606 27009KT P6SM SCT040
     FM250800 28006KT P6SM SCT060
     FM251400 28011KT P6SM FEW060
     FM260000 27006KT P6SM SCT250=

USA.gov is the U.S. government's official web portal to all federal, state and local government web resources and services.